Weather at Kagoshima Airport

Public forecast

Using degrees Celsius for public forecast. Weather courtesy of forecast.io.

Current aviation weather report (METAR) for Kagoshima Airport

Report is more than 2 hours old.

Retrieved 2021/07/24 12:00 UTC (5 hours ago):

RJFK 241200Z 11007KT 9999 FEW010 SCT025 BKN/// 24/23 Q1007 RMK 1CU010 3CU025 A2976

Aviation forecast (TAF) for Kagoshima Airport

Retrieved 2021/07/24 12:31 UTC (5 hours ago):

TAF RJFK 241106Z 2412/2518 10011KT 9999 FEW015 SCT025 BKN035 TEMPO 2500/2509 10015G25KT